sensor_id;sensor_type;location;lat;lon;timestamp;P1;durP1;ratioP1;P2;durP2;ratioP2
7199;SDS011;3641;49.082;8.200;2023-05-10T00:00:37;1.98;;;1.50;;
7199;SDS011;3641;49.082;8.200;2023-05-10T00:03:03;2.90;;;1.48;;
7199;SDS011;3641;49.082;8.200;2023-05-10T00:05:30;2.63;;;1.30;;
7199;SDS011;3641;49.082;8.200;2023-05-10T00:07:56;2.10;;;1.40;;
7199;SDS011;3641;49.082;8.200;2023-05-10T00:10:24;3.08;;;1.20;;
7199;SDS011;3641;49.082;8.200;2023-05-10T00:12:51;1.90;;;1.33;;
7199;SDS011;3641;49.082;8.200;2023-05-10T00:15:17;2.40;;;1.23;;
7199;SDS011;3641;49.082;8.200;2023-05-10T00:17:44;2.60;;;1.45;;
7199;SDS011;3641;49.082;8.200;2023-05-10T00:20:11;0.90;;;0.80;;
7199;SDS011;3641;49.082;8.200;2023-05-10T00:22:37;1.83;;;1.00;;
7199;SDS011;3641;49.082;8.200;2023-05-10T00:25:04;1.98;;;1.00;;
7199;SDS011;3641;49.082;8.200;2023-05-10T00:27:33;1.98;;;0.98;;
7199;SDS011;3641;49.082;8.200;2023-05-10T00:30:00;4.55;;;1.00;;
7199;SDS011;3641;49.082;8.200;2023-05-10T00:32:26;3.45;;;1.02;;
7199;SDS011;3641;49.082;8.200;2023-05-10T00:34:53;1.20;;;1.10;;
7199;SDS011;3641;49.082;8.200;2023-05-10T00:37:19;3.97;;;1.10;;
7199;SDS011;3641;49.082;8.200;2023-05-10T00:39:46;2.60;;;1.30;;
7199;SDS011;3641;49.082;8.200;2023-05-10T00:42:12;3.38;;;1.45;;
7199;SDS011;3641;49.082;8.200;2023-05-10T00:44:40;2.65;;;1.52;;
7199;SDS011;3641;49.082;8.200;2023-05-10T00:47:07;2.95;;;1.48;;
7199;SDS011;3641;49.082;8.200;2023-05-10T00:49:34;3.20;;;2.13;;
7199;SDS011;3641;49.082;8.200;2023-05-10T00:52:01;2.45;;;1.70;;
7199;SDS011;3641;49.082;8.200;2023-05-10T00:54:28;2.35;;;1.55;;
7199;SDS011;3641;49.082;8.200;2023-05-10T00:56:55;3.70;;;1.98;;
7199;SDS011;3641;49.082;8.200;2023-05-10T00:59:22;2.30;;;1.70;;
7199;SDS011;3641;49.082;8.200;2023-05-10T01:01:49;5.18;;;2.17;;
7199;SDS011;3641;49.082;8.200;2023-05-10T01:04:16;2.67;;;1.90;;
7199;SDS011;3641;49.082;8.200;2023-05-10T01:06:45;6.85;;;1.80;;
7199;SDS011;3641;49.082;8.200;2023-05-10T01:09:11;3.40;;;1.63;;
7199;SDS011;3641;49.082;8.200;2023-05-10T01:11:38;3.13;;;1.80;;
7199;SDS011;3641;49.082;8.200;2023-05-10T01:14:06;3.05;;;1.67;;
7199;SDS011;3641;49.082;8.200;2023-05-10T01:16:33;2.63;;;1.73;;
7199;SDS011;3641;49.082;8.200;2023-05-10T01:19:05;2.67;;;1.70;;
7199;SDS011;3641;49.082;8.200;2023-05-10T01:21:37;3.70;;;1.60;;
7199;SDS011;3641;49.082;8.200;2023-05-10T01:24:09;3.35;;;1.77;;
7199;SDS011;3641;49.082;8.200;2023-05-10T01:27:02;3.92;;;1.98;;
7199;SDS011;3641;49.082;8.200;2023-05-10T01:29:58;3.25;;;1.92;;
7199;SDS011;3641;49.082;8.200;2023-05-10T01:32:36;4.88;;;1.75;;
7199;SDS011;3641;49.082;8.200;2023-05-10T01:35:10;2.63;;;2.10;;
7199;SDS011;3641;49.082;8.200;2023-05-10T01:37:44;6.60;;;2.10;;
7199;SDS011;3641;49.082;8.200;2023-05-10T01:40:17;3.58;;;1.90;;
7199;SDS011;3641;49.082;8.200;2023-05-10T01:42:48;7.03;;;2.60;;
7199;SDS011;3641;49.082;8.200;2023-05-10T01:45:19;4.38;;;2.30;;
7199;SDS011;3641;49.082;8.200;2023-05-10T01:47:56;3.95;;;2.60;;
7199;SDS011;3641;49.082;8.200;2023-05-10T01:50:29;5.30;;;2.50;;
7199;SDS011;3641;49.082;8.200;2023-05-10T01:52:58;3.97;;;2.78;;
7199;SDS011;3641;49.082;8.200;2023-05-10T01:55:27;5.25;;;2.70;;
7199;SDS011;3641;49.082;8.200;2023-05-10T01:57:58;4.28;;;2.70;;
7199;SDS011;3641;49.082;8.200;2023-05-10T02:00:28;7.32;;;2.92;;
7199;SDS011;3641;49.082;8.200;2023-05-10T02:02:57;5.35;;;2.92;;
7199;SDS011;3641;49.082;8.200;2023-05-10T02:05:26;6.10;;;3.53;;
7199;SDS011;3641;49.082;8.200;2023-05-10T02:07:57;5.45;;;2.95;;
7199;SDS011;3641;49.082;8.200;2023-05-10T02:10:25;4.18;;;3.00;;
7199;SDS011;3641;49.082;8.200;2023-05-10T02:12:52;6.93;;;3.35;;
7199;SDS011;3641;49.082;8.200;2023-05-10T02:15:22;7.50;;;3.25;;
7199;SDS011;3641;49.082;8.200;2023-05-10T02:17:50;5.18;;;3.40;;
7199;SDS011;3641;49.082;8.200;2023-05-10T02:20:21;9.20;;;4.10;;
7199;SDS011;3641;49.082;8.200;2023-05-10T02:22:52;6.43;;;3.63;;
7199;SDS011;3641;49.082;8.200;2023-05-10T02:25:21;5.65;;;3.78;;
7199;SDS011;3641;49.082;8.200;2023-05-10T02:27:49;6.53;;;3.83;;
7199;SDS011;3641;49.082;8.200;2023-05-10T02:30:17;6.72;;;4.00;;
7199;SDS011;3641;49.082;8.200;2023-05-10T02:32:45;6.65;;;4.38;;
7199;SDS011;3641;49.082;8.200;2023-05-10T02:35:13;5.72;;;4.20;;
7199;SDS011;3641;49.082;8.200;2023-05-10T02:37:42;8.38;;;4.53;;
7199;SDS011;3641;49.082;8.200;2023-05-10T02:40:10;7.95;;;5.30;;
7199;SDS011;3641;49.082;8.200;2023-05-10T02:42:38;7.55;;;4.40;;
7199;SDS011;3641;49.082;8.200;2023-05-10T02:45:10;9.13;;;5.25;;
7199;SDS011;3641;49.082;8.200;2023-05-10T02:47:39;8.45;;;5.18;;
7199;SDS011;3641;49.082;8.200;2023-05-10T02:50:06;6.00;;;4.65;;
7199;SDS011;3641;49.082;8.200;2023-05-10T02:52:36;8.10;;;5.00;;
7199;SDS011;3641;49.082;8.200;2023-05-10T02:55:09;9.48;;;5.63;;
7199;SDS011;3641;49.082;8.200;2023-05-10T02:57:38;8.80;;;5.40;;
7199;SDS011;3641;49.082;8.200;2023-05-10T03:00:09;8.95;;;5.53;;
7199;SDS011;3641;49.082;8.200;2023-05-10T03:02:36;9.05;;;5.88;;
7199;SDS011;3641;49.082;8.200;2023-05-10T03:05:03;8.15;;;5.57;;
7199;SDS011;3641;49.082;8.200;2023-05-10T03:07:29;8.10;;;5.30;;
7199;SDS011;3641;49.082;8.200;2023-05-10T03:09:56;7.65;;;5.28;;
7199;SDS011;3641;49.082;8.200;2023-05-10T03:12:27;10.40;;;5.35;;
7199;SDS011;3641;49.082;8.200;2023-05-10T03:15:03;8.65;;;5.80;;
7199;SDS011;3641;49.082;8.200;2023-05-10T03:17:40;9.05;;;6.00;;
7199;SDS011;3641;49.082;8.200;2023-05-10T03:20:15;8.02;;;5.80;;
7199;SDS011;3641;49.082;8.200;2023-05-10T03:22:47;8.15;;;6.07;;
7199;SDS011;3641;49.082;8.200;2023-05-10T03:25:16;9.25;;;5.85;;
7199;SDS011;3641;49.082;8.200;2023-05-10T03:27:46;8.55;;;6.25;;
7199;SDS011;3641;49.082;8.200;2023-05-10T03:30:13;10.25;;;6.85;;
7199;SDS011;3641;49.082;8.200;2023-05-10T03:32:40;10.27;;;6.30;;
7199;SDS011;3641;49.082;8.200;2023-05-10T03:35:07;9.65;;;6.60;;
7199;SDS011;3641;49.082;8.200;2023-05-10T03:37:34;8.98;;;6.95;;
7199;SDS011;3641;49.082;8.200;2023-05-10T03:40:01;11.38;;;7.57;;
7199;SDS011;3641;49.082;8.200;2023-05-10T03:42:28;9.38;;;7.45;;
7199;SDS011;3641;49.082;8.200;2023-05-10T03:44:55;9.57;;;7.40;;
7199;SDS011;3641;49.082;8.200;2023-05-10T03:47:22;9.93;;;6.82;;
7199;SDS011;3641;49.082;8.200;2023-05-10T03:49:49;10.05;;;7.55;;
7199;SDS011;3641;49.082;8.200;2023-05-10T03:52:15;13.75;;;7.07;;
7199;SDS011;3641;49.082;8.200;2023-05-10T03:54:42;11.35;;;7.30;;
7199;SDS011;3641;49.082;8.200;2023-05-10T03:57:08;10.63;;;7.65;;
7199;SDS011;3641;49.082;8.200;2023-05-10T03:59:35;10.70;;;7.75;;
7199;SDS011;3641;49.082;8.200;2023-05-10T04:02:03;10.40;;;7.50;;
7199;SDS011;3641;49.082;8.200;2023-05-10T04:04:30;14.95;;;7.18;;
7199;SDS011;3641;49.082;8.200;2023-05-10T04:06:56;10.63;;;7.13;;
7199;SDS011;3641;49.082;8.200;2023-05-10T04:09:23;13.68;;;7.57;;
7199;SDS011;3641;49.082;8.200;2023-05-10T04:11:50;10.07;;;7.05;;
7199;SDS011;3641;49.082;8.200;2023-05-10T04:14:16;11.02;;;7.10;;
7199;SDS011;3641;49.082;8.200;2023-05-10T04:16:43;10.65;;;7.10;;
7199;SDS011;3641;49.082;8.200;2023-05-10T04:19:11;15.18;;;8.50;;
7199;SDS011;3641;49.082;8.200;2023-05-10T04:21:37;9.80;;;7.07;;
7199;SDS011;3641;49.082;8.200;2023-05-10T04:24:04;14.85;;;7.60;;
7199;SDS011;3641;49.082;8.200;2023-05-10T04:26:31;8.93;;;7.22;;
7199;SDS011;3641;49.082;8.200;2023-05-10T04:28:57;11.63;;;8.45;;
7199;SDS011;3641;49.082;8.200;2023-05-10T04:31:23;10.13;;;7.57;;
7199;SDS011;3641;49.082;8.200;2023-05-10T04:33:51;10.43;;;7.85;;
7199;SDS011;3641;49.082;8.200;2023-05-10T04:36:18;9.25;;;7.40;;
7199;SDS011;3641;49.082;8.200;2023-05-10T04:38:45;10.00;;;7.50;;
7199;SDS011;3641;49.082;8.200;2023-05-10T04:41:11;11.57;;;7.15;;
7199;SDS011;3641;49.082;8.200;2023-05-10T04:43:38;12.02;;;7.95;;
7199;SDS011;3641;49.082;8.200;2023-05-10T04:46:06;10.00;;;7.40;;
7199;SDS011;3641;49.082;8.200;2023-05-10T04:48:32;10.32;;;8.10;;
7199;SDS011;3641;49.082;8.200;2023-05-10T04:50:59;10.80;;;7.22;;
7199;SDS011;3641;49.082;8.200;2023-05-10T04:53:27;11.02;;;6.80;;
7199;SDS011;3641;49.082;8.200;2023-05-10T04:55:53;10.93;;;6.80;;
7199;SDS011;3641;49.082;8.200;2023-05-10T04:58:20;9.82;;;6.72;;
7199;SDS011;3641;49.082;8.200;2023-05-10T05:00:47;8.75;;;6.22;;
7199;SDS011;3641;49.082;8.200;2023-05-10T05:03:13;10.20;;;6.20;;
7199;SDS011;3641;49.082;8.200;2023-05-10T05:05:39;9.80;;;6.40;;
7199;SDS011;3641;49.082;8.200;2023-05-10T05:08:06;9.23;;;6.18;;
7199;SDS011;3641;49.082;8.200;2023-05-10T05:10:34;10.30;;;7.20;;
7199;SDS011;3641;49.082;8.200;2023-05-10T05:13:00;10.25;;;7.13;;
7199;SDS011;3641;49.082;8.200;2023-05-10T05:15:27;12.35;;;7.25;;
7199;SDS011;3641;49.082;8.200;2023-05-10T05:17:53;11.73;;;7.53;;
7199;SDS011;3641;49.082;8.200;2023-05-10T05:20:20;10.07;;;7.57;;
7199;SDS011;3641;49.082;8.200;2023-05-10T05:22:46;12.75;;;8.20;;
7199;SDS011;3641;49.082;8.200;2023-05-10T05:25:12;9.70;;;7.47;;
7199;SDS011;3641;49.082;8.200;2023-05-10T05:27:41;9.48;;;7.57;;
7199;SDS011;3641;49.082;8.200;2023-05-10T05:30:08;12.85;;;8.30;;
7199;SDS011;3641;49.082;8.200;2023-05-10T05:32:35;10.32;;;8.02;;
7199;SDS011;3641;49.082;8.200;2023-05-10T05:35:01;11.57;;;7.55;;
7199;SDS011;3641;49.082;8.200;2023-05-10T05:37:28;14.45;;;8.60;;
7199;SDS011;3641;49.082;8.200;2023-05-10T05:39:54;11.00;;;7.95;;
7199;SDS011;3641;49.082;8.200;2023-05-10T05:42:21;13.88;;;7.68;;
7199;SDS011;3641;49.082;8.200;2023-05-10T05:44:49;13.13;;;7.65;;
7199;SDS011;3641;49.082;8.200;2023-05-10T05:47:15;10.68;;;7.50;;
7199;SDS011;3641;49.082;8.200;2023-05-10T05:49:42;10.38;;;8.15;;
7199;SDS011;3641;49.082;8.200;2023-05-10T05:52:10;9.80;;;7.47;;
7199;SDS011;3641;49.082;8.200;2023-05-10T05:54:37;12.95;;;7.43;;
7199;SDS011;3641;49.082;8.200;2023-05-10T05:57:03;10.63;;;7.20;;
7199;SDS011;3641;49.082;8.200;2023-05-10T05:59:30;9.98;;;6.90;;
7199;SDS011;3641;49.082;8.200;2023-05-10T06:01:58;14.07;;;6.88;;
7199;SDS011;3641;49.082;8.200;2023-05-10T06:04:25;11.43;;;6.95;;
7199;SDS011;3641;49.082;8.200;2023-05-10T06:06:52;8.95;;;6.30;;
7199;SDS011;3641;49.082;8.200;2023-05-10T06:09:18;8.57;;;6.13;;
7199;SDS011;3641;49.082;8.200;2023-05-10T06:11:44;9.35;;;6.07;;
7199;SDS011;3641;49.082;8.200;2023-05-10T06:14:11;7.53;;;5.50;;
7199;SDS011;3641;49.082;8.200;2023-05-10T06:16:37;9.32;;;5.63;;
7199;SDS011;3641;49.082;8.200;2023-05-10T06:19:05;8.55;;;5.65;;
7199;SDS011;3641;49.082;8.200;2023-05-10T06:21:32;7.85;;;5.13;;
7199;SDS011;3641;49.082;8.200;2023-05-10T06:23:58;8.07;;;4.85;;
7199;SDS011;3641;49.082;8.200;2023-05-10T06:26:25;11.30;;;5.57;;
7199;SDS011;3641;49.082;8.200;2023-05-10T06:28:51;8.73;;;4.80;;
7199;SDS011;3641;49.082;8.200;2023-05-10T06:31:17;9.23;;;4.57;;
7199;SDS011;3641;49.082;8.200;2023-05-10T06:33:44;8.98;;;4.95;;
7199;SDS011;3641;49.082;8.200;2023-05-10T06:36:12;6.10;;;3.92;;
7199;SDS011;3641;49.082;8.200;2023-05-10T06:38:39;5.75;;;3.90;;
7199;SDS011;3641;49.082;8.200;2023-05-10T06:41:05;5.97;;;3.70;;
7199;SDS011;3641;49.082;8.200;2023-05-10T06:43:32;3.80;;;3.22;;
7199;SDS011;3641;49.082;8.200;2023-05-10T06:45:58;4.43;;;3.00;;
7199;SDS011;3641;49.082;8.200;2023-05-10T06:48:25;7.22;;;2.67;;
7199;SDS011;3641;49.082;8.200;2023-05-10T06:50:51;2.92;;;2.50;;
7199;SDS011;3641;49.082;8.200;2023-05-10T06:53:19;4.72;;;2.70;;
7199;SDS011;3641;49.082;8.200;2023-05-10T06:55:45;5.78;;;2.55;;
7199;SDS011;3641;49.082;8.200;2023-05-10T06:58:12;3.33;;;2.35;;
7199;SDS011;3641;49.082;8.200;2023-05-10T07:00:38;3.28;;;2.33;;
7199;SDS011;3641;49.082;8.200;2023-05-10T07:03:07;3.47;;;2.30;;
7199;SDS011;3641;49.082;8.200;2023-05-10T07:05:34;5.90;;;2.03;;
7199;SDS011;3641;49.082;8.200;2023-05-10T07:08:01;4.30;;;2.20;;
7199;SDS011;3641;49.082;8.200;2023-05-10T07:10:28;4.07;;;2.22;;
7199;SDS011;3641;49.082;8.200;2023-05-10T07:12:55;4.63;;;2.03;;
7199;SDS011;3641;49.082;8.200;2023-05-10T07:15:21;5.40;;;2.20;;
7199;SDS011;3641;49.082;8.200;2023-05-10T07:17:48;4.72;;;2.22;;
7199;SDS011;3641;49.082;8.200;2023-05-10T07:20:15;5.05;;;2.67;;
7199;SDS011;3641;49.082;8.200;2023-05-10T07:22:41;4.15;;;2.75;;
7199;SDS011;3641;49.082;8.200;2023-05-10T07:25:08;3.17;;;2.63;;
7199;SDS011;3641;49.082;8.200;2023-05-10T07:27:36;6.85;;;2.88;;
7199;SDS011;3641;49.082;8.200;2023-05-10T07:30:02;7.03;;;2.65;;
7199;SDS011;3641;49.082;8.200;2023-05-10T07:32:29;8.63;;;2.28;;
7199;SDS011;3641;49.082;8.200;2023-05-10T07:34:56;3.95;;;2.47;;
7199;SDS011;3641;49.082;8.200;2023-05-10T07:37:22;3.20;;;2.40;;
7199;SDS011;3641;49.082;8.200;2023-05-10T07:39:49;5.57;;;2.58;;
7199;SDS011;3641;49.082;8.200;2023-05-10T07:42:15;4.38;;;2.67;;
7199;SDS011;3641;49.082;8.200;2023-05-10T07:44:44;5.00;;;2.58;;
7199;SDS011;3641;49.082;8.200;2023-05-10T07:47:10;4.28;;;2.40;;
7199;SDS011;3641;49.082;8.200;2023-05-10T07:49:37;3.75;;;2.83;;
7199;SDS011;3641;49.082;8.200;2023-05-10T07:52:03;3.70;;;2.67;;
7199;SDS011;3641;49.082;8.200;2023-05-10T07:54:30;4.63;;;2.17;;
7199;SDS011;3641;49.082;8.200;2023-05-10T07:56:56;14.80;;;2.55;;
7199;SDS011;3641;49.082;8.200;2023-05-10T07:59:24;4.93;;;2.30;;
7199;SDS011;3641;49.082;8.200;2023-05-10T08:01:52;2.45;;;2.00;;
7199;SDS011;3641;49.082;8.200;2023-05-10T08:04:18;4.43;;;1.80;;
7199;SDS011;3641;49.082;8.200;2023-05-10T08:06:45;2.35;;;1.92;;
7199;SDS011;3641;49.082;8.200;2023-05-10T08:09:11;4.05;;;1.80;;
7199;SDS011;3641;49.082;8.200;2023-05-10T08:11:38;3.22;;;1.98;;
7199;SDS011;3641;49.082;8.200;2023-05-10T08:14:04;5.53;;;1.70;;
7199;SDS011;3641;49.082;8.200;2023-05-10T08:16:31;4.25;;;1.98;;
7199;SDS011;3641;49.082;8.200;2023-05-10T08:19:00;4.45;;;2.00;;
7199;SDS011;3641;49.082;8.200;2023-05-10T08:21:27;3.17;;;1.83;;
7199;SDS011;3641;49.082;8.200;2023-05-10T08:23:53;2.70;;;1.83;;
7199;SDS011;3641;49.082;8.200;2023-05-10T08:26:20;3.67;;;1.67;;
7199;SDS011;3641;49.082;8.200;2023-05-10T08:28:46;1.58;;;1.13;;
7199;SDS011;3641;49.082;8.200;2023-05-10T08:31:13;2.30;;;1.20;;
7199;SDS011;3641;49.082;8.200;2023-05-10T08:33:39;2.67;;;1.30;;
7199;SDS011;3641;49.082;8.200;2023-05-10T08:36:07;3.65;;;1.33;;
7199;SDS011;3641;49.082;8.200;2023-05-10T08:38:34;3.08;;;1.50;;
7199;SDS011;3641;49.082;8.200;2023-05-10T08:41:01;1.55;;;1.20;;
7199;SDS011;3641;49.082;8.200;2023-05-10T08:43:28;2.78;;;1.20;;
7199;SDS011;3641;49.082;8.200;2023-05-10T08:45:55;2.85;;;1.13;;
7199;SDS011;3641;49.082;8.200;2023-05-10T08:48:25;6.47;;;1.40;;
7199;SDS011;3641;49.082;8.200;2023-05-10T08:50:54;2.15;;;1.35;;
7199;SDS011;3641;49.082;8.200;2023-05-10T08:53:26;2.35;;;1.30;;
7199;SDS011;3641;49.082;8.200;2023-05-10T08:55:55;2.45;;;1.42;;
7199;SDS011;3641;49.082;8.200;2023-05-10T08:58:21;2.05;;;1.10;;
7199;SDS011;3641;49.082;8.200;2023-05-10T09:00:48;1.45;;;0.90;;
7199;SDS011;3641;49.082;8.200;2023-05-10T09:03:15;2.22;;;1.02;;
7199;SDS011;3641;49.082;8.200;2023-05-10T09:05:42;1.75;;;1.10;;
7199;SDS011;3641;49.082;8.200;2023-05-10T09:08:09;2.92;;;1.00;;
7199;SDS011;3641;49.082;8.200;2023-05-10T09:10:39;1.73;;;0.98;;
7199;SDS011;3641;49.082;8.200;2023-05-10T09:13:08;1.55;;;1.00;;
7199;SDS011;3641;49.082;8.200;2023-05-10T09:15:36;1.75;;;0.85;;
7199;SDS011;3641;49.082;8.200;2023-05-10T09:18:03;0.98;;;0.88;;
7199;SDS011;3641;49.082;8.200;2023-05-10T09:20:29;1.30;;;0.82;;
7199;SDS011;3641;49.082;8.200;2023-05-10T09:22:56;2.28;;;1.08;;
7199;SDS011;3641;49.082;8.200;2023-05-10T09:25:22;1.67;;;0.90;;
7199;SDS011;3641;49.082;8.200;2023-05-10T09:27:50;2.72;;;0.95;;
7199;SDS011;3641;49.082;8.200;2023-05-10T09:30:22;2.28;;;1.05;;
7199;SDS011;3641;49.082;8.200;2023-05-10T09:32:50;1.92;;;1.08;;
7199;SDS011;3641;49.082;8.200;2023-05-10T09:35:17;2.33;;;1.00;;
7199;SDS011;3641;49.082;8.200;2023-05-10T09:37:45;5.60;;;1.05;;
7199;SDS011;3641;49.082;8.200;2023-05-10T09:40:14;1.55;;;1.02;;
7199;SDS011;3641;49.082;8.200;2023-05-10T09:42:42;1.20;;;0.77;;
7199;SDS011;3641;49.082;8.200;2023-05-10T09:45:17;3.28;;;1.00;;
7199;SDS011;3641;49.082;8.200;2023-05-10T09:47:44;1.92;;;0.98;;
7199;SDS011;3641;49.082;8.200;2023-05-10T09:50:12;3.28;;;1.05;;
7199;SDS011;3641;49.082;8.200;2023-05-10T09:52:45;3.20;;;1.10;;
7199;SDS011;3641;49.082;8.200;2023-05-10T09:55:13;1.50;;;1.00;;
7199;SDS011;3641;49.082;8.200;2023-05-10T09:57:40;2.88;;;1.00;;
7199;SDS011;3641;49.082;8.200;2023-05-10T10:00:07;1.58;;;1.00;;
7199;SDS011;3641;49.082;8.200;2023-05-10T10:02:36;1.85;;;1.15;;
7199;SDS011;3641;49.082;8.200;2023-05-10T10:05:03;1.42;;;0.90;;
7199;SDS011;3641;49.082;8.200;2023-05-10T10:07:30;5.28;;;1.08;;
7199;SDS011;3641;49.082;8.200;2023-05-10T10:09:56;2.65;;;0.90;;
7199;SDS011;3641;49.082;8.200;2023-05-10T10:12:24;3.22;;;1.23;;
7199;SDS011;3641;49.082;8.200;2023-05-10T10:14:51;3.33;;;1.10;;
7199;SDS011;3641;49.082;8.200;2023-05-10T10:17:19;2.55;;;1.00;;
7199;SDS011;3641;49.082;8.200;2023-05-10T10:19:47;2.33;;;1.00;;
7199;SDS011;3641;49.082;8.200;2023-05-10T10:22:14;4.53;;;1.10;;
7199;SDS011;3641;49.082;8.200;2023-05-10T10:24:41;4.72;;;0.90;;
7199;SDS011;3641;49.082;8.200;2023-05-10T10:27:09;3.03;;;0.93;;
7199;SDS011;3641;49.082;8.200;2023-05-10T10:29:47;2.85;;;0.80;;
7199;SDS011;3641;49.082;8.200;2023-05-10T10:32:25;3.88;;;0.93;;
7199;SDS011;3641;49.082;8.200;2023-05-10T10:35:00;1.65;;;0.70;;
7199;SDS011;3641;49.082;8.200;2023-05-10T10:37:40;2.72;;;0.90;;
7199;SDS011;3641;49.082;8.200;2023-05-10T10:40:22;3.20;;;1.10;;
7199;SDS011;3641;49.082;8.200;2023-05-10T10:42:49;3.55;;;1.35;;
7199;SDS011;3641;49.082;8.200;2023-05-10T10:45:16;5.40;;;1.50;;
7199;SDS011;3641;49.082;8.200;2023-05-10T10:47:42;5.07;;;1.30;;
7199;SDS011;3641;49.082;8.200;2023-05-10T10:50:11;4.03;;;1.38;;
7199;SDS011;3641;49.082;8.200;2023-05-10T10:52:39;3.65;;;1.25;;
7199;SDS011;3641;49.082;8.200;2023-05-10T10:55:07;5.45;;;1.50;;
7199;SDS011;3641;49.082;8.200;2023-05-10T10:57:45;3.05;;;1.50;;
7199;SDS011;3641;49.082;8.200;2023-05-10T11:00:26;4.35;;;1.15;;
7199;SDS011;3641;49.082;8.200;2023-05-10T11:02:58;2.72;;;1.45;;
7199;SDS011;3641;49.082;8.200;2023-05-10T11:05:39;4.68;;;1.90;;
7199;SDS011;3641;49.082;8.200;2023-05-10T11:08:08;3.05;;;1.40;;
7199;SDS011;3641;49.082;8.200;2023-05-10T11:10:36;5.32;;;1.40;;
7199;SDS011;3641;49.082;8.200;2023-05-10T11:13:04;8.45;;;1.40;;
7199;SDS011;3641;49.082;8.200;2023-05-10T11:15:32;3.47;;;1.33;;
7199;SDS011;3641;49.082;8.200;2023-05-10T11:18:00;4.53;;;1.58;;
7199;SDS011;3641;49.082;8.200;2023-05-10T11:20:45;2.42;;;1.50;;
7199;SDS011;3641;49.082;8.200;2023-05-10T11:23:16;4.97;;;1.73;;
7199;SDS011;3641;49.082;8.200;2023-05-10T11:25:44;2.30;;;1.60;;
7199;SDS011;3641;49.082;8.200;2023-05-10T11:28:12;4.25;;;1.52;;
7199;SDS011;3641;49.082;8.200;2023-05-10T11:30:39;5.70;;;1.40;;
7199;SDS011;3641;49.082;8.200;2023-05-10T11:33:07;4.25;;;1.38;;
7199;SDS011;3641;49.082;8.200;2023-05-10T11:35:37;2.35;;;1.25;;
7199;SDS011;3641;49.082;8.200;2023-05-10T11:38:06;3.33;;;1.35;;
7199;SDS011;3641;49.082;8.200;2023-05-10T11:40:33;4.05;;;1.20;;
7199;SDS011;3641;49.082;8.200;2023-05-10T11:43:00;1.77;;;1.15;;
7199;SDS011;3641;49.082;8.200;2023-05-10T11:45:27;3.00;;;1.13;;
7199;SDS011;3641;49.082;8.200;2023-05-10T11:47:54;6.57;;;1.60;;
7199;SDS011;3641;49.082;8.200;2023-05-10T11:50:21;2.67;;;1.50;;
7199;SDS011;3641;49.082;8.200;2023-05-10T11:52:50;3.03;;;1.27;;
7199;SDS011;3641;49.082;8.200;2023-05-10T11:55:18;3.50;;;1.30;;
7199;SDS011;3641;49.082;8.200;2023-05-10T11:57:45;5.20;;;1.50;;
7199;SDS011;3641;49.082;8.200;2023-05-10T12:00:12;2.60;;;1.48;;
7199;SDS011;3641;49.082;8.200;2023-05-10T12:02:39;3.33;;;1.40;;
7199;SDS011;3641;49.082;8.200;2023-05-10T12:05:05;3.35;;;1.80;;
7199;SDS011;3641;49.082;8.200;2023-05-10T12:07:33;4.15;;;1.92;;
7199;SDS011;3641;49.082;8.200;2023-05-10T12:10:04;3.88;;;1.45;;
7199;SDS011;3641;49.082;8.200;2023-05-10T12:12:39;2.20;;;1.05;;
7199;SDS011;3641;49.082;8.200;2023-05-10T12:15:10;2.60;;;1.50;;
7199;SDS011;3641;49.082;8.200;2023-05-10T12:17:38;5.35;;;1.00;;
7199;SDS011;3641;49.082;8.200;2023-05-10T12:20:15;2.80;;;1.10;;
7199;SDS011;3641;49.082;8.200;2023-05-10T12:22:46;4.13;;;1.40;;
7199;SDS011;3641;49.082;8.200;2023-05-10T12:25:15;2.53;;;1.30;;
7199;SDS011;3641;49.082;8.200;2023-05-10T12:27:48;2.28;;;1.15;;
7199;SDS011;3641;49.082;8.200;2023-05-10T12:30:20;3.45;;;1.23;;
7199;SDS011;3641;49.082;8.200;2023-05-10T12:32:47;6.82;;;1.40;;
7199;SDS011;3641;49.082;8.200;2023-05-10T12:35:14;3.20;;;1.30;;
7199;SDS011;3641;49.082;8.200;2023-05-10T12:37:42;6.32;;;1.38;;
7199;SDS011;3641;49.082;8.200;2023-05-10T12:40:09;2.30;;;1.40;;
7199;SDS011;3641;49.082;8.200;2023-05-10T12:42:37;3.22;;;1.77;;
7199;SDS011;3641;49.082;8.200;2023-05-10T12:45:07;7.75;;;2.03;;
7199;SDS011;3641;49.082;8.200;2023-05-10T12:47:34;4.18;;;1.40;;
7199;SDS011;3641;49.082;8.200;2023-05-10T12:50:01;2.80;;;1.00;;
7199;SDS011;3641;49.082;8.200;2023-05-10T12:52:28;2.70;;;0.95;;
7199;SDS011;3641;49.082;8.200;2023-05-10T12:54:56;2.95;;;0.80;;
7199;SDS011;3641;49.082;8.200;2023-05-10T12:57:23;1.92;;;0.80;;
7199;SDS011;3641;49.082;8.200;2023-05-10T12:59:49;2.42;;;0.98;;
7199;SDS011;3641;49.082;8.200;2023-05-10T13:02:17;1.85;;;0.70;;
7199;SDS011;3641;49.082;8.200;2023-05-10T13:04:45;2.22;;;0.57;;
7199;SDS011;3641;49.082;8.200;2023-05-10T13:07:12;3.25;;;0.70;;
7199;SDS011;3641;49.082;8.200;2023-05-10T13:09:39;1.58;;;0.70;;
7199;SDS011;3641;49.082;8.200;2023-05-10T13:12:05;2.03;;;0.50;;
7199;SDS011;3641;49.082;8.200;2023-05-10T13:14:32;3.55;;;0.70;;
7199;SDS011;3641;49.082;8.200;2023-05-10T13:16:58;2.55;;;0.70;;
7199;SDS011;3641;49.082;8.200;2023-05-10T13:19:26;4.05;;;0.75;;
7199;SDS011;3641;49.082;8.200;2023-05-10T13:21:53;3.08;;;0.60;;
7199;SDS011;3641;49.082;8.200;2023-05-10T13:24:19;2.90;;;0.60;;
7199;SDS011;3641;49.082;8.200;2023-05-10T13:26:46;1.60;;;0.70;;
7199;SDS011;3641;49.082;8.200;2023-05-10T13:29:13;2.13;;;0.47;;
7199;SDS011;3641;49.082;8.200;2023-05-10T13:31:42;1.73;;;0.50;;
7199;SDS011;3641;49.082;8.200;2023-05-10T13:34:08;0.95;;;0.57;;
7199;SDS011;3641;49.082;8.200;2023-05-10T13:36:36;1.00;;;0.60;;
7199;SDS011;3641;49.082;8.200;2023-05-10T13:39:03;1.67;;;0.60;;
7199;SDS011;3641;49.082;8.200;2023-05-10T13:41:30;1.40;;;0.80;;
7199;SDS011;3641;49.082;8.200;2023-05-10T13:43:56;2.85;;;0.77;;
7199;SDS011;3641;49.082;8.200;2023-05-10T13:46:23;3.28;;;0.70;;
7199;SDS011;3641;49.082;8.200;2023-05-10T13:48:49;0.70;;;0.50;;
7199;SDS011;3641;49.082;8.200;2023-05-10T13:51:16;1.17;;;0.60;;
7199;SDS011;3641;49.082;8.200;2023-05-10T13:53:43;1.45;;;0.80;;
7199;SDS011;3641;49.082;8.200;2023-05-10T13:56:12;1.30;;;0.60;;
7199;SDS011;3641;49.082;8.200;2023-05-10T13:58:38;2.47;;;0.60;;
7199;SDS011;3641;49.082;8.200;2023-05-10T14:01:05;5.28;;;0.90;;
7199;SDS011;3641;49.082;8.200;2023-05-10T14:03:31;2.80;;;0.70;;
7199;SDS011;3641;49.082;8.200;2023-05-10T14:05:58;2.58;;;0.95;;
7199;SDS011;3641;49.082;8.200;2023-05-10T14:08:25;1.38;;;0.68;;
7199;SDS011;3641;49.082;8.200;2023-05-10T14:10:55;3.42;;;0.75;;
7199;SDS011;3641;49.082;8.200;2023-05-10T14:13:22;4.10;;;0.63;;
7199;SDS011;3641;49.082;8.200;2023-05-10T14:15:49;1.50;;;0.70;;
7199;SDS011;3641;49.082;8.200;2023-05-10T14:18:16;2.92;;;0.60;;
7199;SDS011;3641;49.082;8.200;2023-05-10T14:20:42;3.67;;;1.10;;
7199;SDS011;3641;49.082;8.200;2023-05-10T14:23:09;2.50;;;0.70;;
7199;SDS011;3641;49.082;8.200;2023-05-10T14:25:35;2.92;;;0.68;;
7199;SDS011;3641;49.082;8.200;2023-05-10T14:28:04;1.83;;;0.70;;
7199;SDS011;3641;49.082;8.200;2023-05-10T14:30:31;1.60;;;0.60;;
7199;SDS011;3641;49.082;8.200;2023-05-10T14:32:59;1.92;;;0.80;;
7199;SDS011;3641;49.082;8.200;2023-05-10T14:35:26;1.63;;;0.68;;
7199;SDS011;3641;49.082;8.200;2023-05-10T14:37:52;2.00;;;0.70;;
7199;SDS011;3641;49.082;8.200;2023-05-10T14:40:19;1.83;;;1.05;;
7199;SDS011;3641;49.082;8.200;2023-05-10T14:42:46;2.08;;;0.68;;
7199;SDS011;3641;49.082;8.200;2023-05-10T14:45:13;1.45;;;0.73;;
7199;SDS011;3641;49.082;8.200;2023-05-10T14:47:40;2.05;;;0.60;;
7199;SDS011;3641;49.082;8.200;2023-05-10T14:50:07;1.45;;;0.60;;
7199;SDS011;3641;49.082;8.200;2023-05-10T14:52:33;3.08;;;0.73;;
7199;SDS011;3641;49.082;8.200;2023-05-10T14:55:00;1.92;;;0.82;;
7199;SDS011;3641;49.082;8.200;2023-05-10T14:57:27;2.33;;;0.70;;
7199;SDS011;3641;49.082;8.200;2023-05-10T14:59:54;0.95;;;0.70;;
7199;SDS011;3641;49.082;8.200;2023-05-10T15:02:22;4.45;;;0.90;;
7199;SDS011;3641;49.082;8.200;2023-05-10T15:04:48;0.98;;;0.60;;
7199;SDS011;3641;49.082;8.200;2023-05-10T15:07:15;1.08;;;0.70;;
7199;SDS011;3641;49.082;8.200;2023-05-10T15:09:43;5.50;;;0.60;;
7199;SDS011;3641;49.082;8.200;2023-05-10T15:12:09;2.28;;;0.90;;
7199;SDS011;3641;49.082;8.200;2023-05-10T15:14:36;2.70;;;0.70;;
7199;SDS011;3641;49.082;8.200;2023-05-10T15:17:02;4.18;;;0.88;;